Time;durP1;ratioP1;P1;durP2;ratioP2;P2;SDS_P1;SDS_P2;PMS_P1;PMS_P2;Temp;Humidity;BMP_temperature;BMP_pressure;BME280_temperature;BME280_humidity;BME280_pressure;Samples;Min_cycle;Max_cycle;Signal;HPM_P1;HPM_P2
2022/02/23 05:00:55;;;;;;;8.50;2.20;;;6.30;99.90;;;;;;5705473;23;20834;-65
2022/02/23 05:03:22;;;;;;;5.87;2.70;;;6.30;99.90;;;;;;4962726;28;20552;-65
2022/02/23 05:05:49;;;;;;;5.93;2.80;;;6.30;99.90;;;;;;4962296;29;20456;-66
2022/02/23 05:08:17;;;;;;;5.80;2.50;;;6.30;99.90;;;;;;4964123;29;20534;-66
2022/02/23 05:10:44;;;;;;;5.67;2.77;;;6.30;99.90;;;;;;4962982;29;20479;-66
2022/02/23 05:13:11;;;;;;;6.70;3.10;;;6.20;99.90;;;;;;4962766;28;20478;-66
2022/02/23 05:15:38;;;;;;;9.17;2.63;;;6.10;99.90;;;;;;4964003;28;20455;-65
2022/02/23 05:18:07;;;;;;;7.83;2.47;;;6.10;99.90;;;;;;4965986;28;20484;-65
2022/02/23 05:20:34;;;;;;;11.60;3.10;;;6.00;99.90;;;;;;4964176;28;20502;-66
2022/02/23 05:23:01;;;;;;;4.27;2.23;;;6.00;99.90;;;;;;4963895;28;20465;-67
2022/02/23 05:25:29;;;;;;;6.67;2.43;;;5.90;99.90;;;;;;4965691;28;20936;-66
2022/02/23 05:27:55;;;;;;;6.00;2.57;;;5.90;99.90;;;;;;4961886;28;20471;-66
2022/02/23 05:30:22;;;;;;;6.77;2.73;;;5.80;99.90;;;;;;4962397;28;20466;-66
2022/02/23 05:32:49;;;;;;;6.43;2.23;;;5.80;99.90;;;;;;4961089;28;20946;-65
2022/02/23 05:35:17;;;;;;;7.90;2.43;;;5.80;99.90;;;;;;4962025;28;20451;-66
2022/02/23 05:37:44;;;;;;;6.23;2.50;;;5.70;99.90;;;;;;4963242;28;20443;-67
2022/02/23 05:40:11;;;;;;;8.67;2.37;;;5.70;99.90;;;;;;4968036;28;20459;-67
2022/02/23 05:42:38;;;;;;;6.20;2.20;;;5.60;99.90;;;;;;4969192;28;20832;-65
2022/02/23 05:45:06;;;;;;;6.53;2.43;;;5.60;99.90;;;;;;4962930;28;20440;-66
2022/02/23 05:47:33;;;;;;;6.13;3.20;;;5.60;99.90;;;;;;4961211;28;20455;-66
2022/02/23 05:50:00;;;;;;;5.87;2.97;;;5.60;99.90;;;;;;4960902;28;20832;-67
2022/02/23 05:52:28;;;;;;;10.57;3.03;;;5.70;99.90;;;;;;4962431;28;20483;-66
2022/02/23 05:54:55;;;;;;;3.50;2.70;;;5.60;99.90;;;;;;4962332;28;20483;-66
2022/02/23 05:57:21;;;;;;;6.70;3.17;;;5.60;99.90;;;;;;4961650;28;20443;-65
2022/02/23 05:59:49;;;;;;;10.37;3.07;;;5.60;99.90;;;;;;4961995;28;20476;-67
2022/02/23 06:02:17;;;;;;;12.57;2.47;;;5.60;99.90;;;;;;4962938;28;20488;-66
2022/02/23 06:04:44;;;;;;;11.00;3.70;;;5.70;99.90;;;;;;4962354;28;20955;-67
2022/02/23 06:07:10;;;;;;;10.97;3.00;;;5.70;99.90;;;;;;4961857;28;20467;-66
2022/02/23 06:09:39;;;;;;;6.70;2.73;;;5.70;99.90;;;;;;4962288;28;20463;-66
2022/02/23 06:12:06;;;;;;;9.13;2.50;;;5.80;99.90;;;;;;4961439;28;20483;-66
2022/02/23 06:14:33;;;;;;;8.53;2.47;;;5.80;99.90;;;;;;4976494;28;20459;-67
2022/02/23 06:16:59;;;;;;;7.50;2.90;;;5.80;99.90;;;;;;4971171;28;20459;-65
2022/02/23 06:19:26;;;;;;;6.10;2.87;;;5.80;99.90;;;;;;4960850;28;20482;-66
2022/02/23 06:21:53;;;;;;;12.83;3.20;;;5.70;99.90;;;;;;4960446;28;20474;-67
2022/02/23 06:24:20;;;;;;;11.03;3.70;;;5.80;99.90;;;;;;4960110;28;20828;-66
2022/02/23 06:26:49;;;;;;;3.87;3.03;;;5.80;99.90;;;;;;4961881;28;20463;-67
2022/02/23 06:29:16;;;;;;;7.27;3.10;;;5.90;99.90;;;;;;4962959;28;20463;-66
2022/02/23 06:31:56;;;;;;;12.67;3.90;;;6.00;99.90;;;;;;4960676;28;20486;-68
2022/02/23 06:34:23;;;;;;;7.13;3.20;;;6.10;99.90;;;;;;4960181;28;20949;-66
2022/02/23 06:36:49;;;;;;;9.10;2.90;;;6.20;99.90;;;;;;4959901;28;20456;-67
2022/02/23 06:39:19;;;;;;;9.33;3.37;;;6.20;99.90;;;;;;4961720;28;20479;-67
2022/02/23 06:41:47;;;;;;;17.73;4.30;;;6.30;99.90;;;;;;4959833;28;20484;-66
2022/02/23 06:44:15;;;;;;;5.93;2.80;;;6.30;99.90;;;;;;4960445;28;20451;-66
2022/02/23 06:46:41;;;;;;;10.13;3.40;;;6.40;99.90;;;;;;4960294;28;20532;-65
2022/02/23 06:49:08;;;;;;;10.23;2.90;;;6.40;99.90;;;;;;4959644;28;20459;-67
2022/02/23 06:51:36;;;;;;;7.90;3.70;;;6.50;99.90;;;;;;4964453;28;20468;-67
2022/02/23 06:54:02;;;;;;;10.30;4.00;;;6.50;99.90;;;;;;4962715;28;20471;-66
2022/02/23 06:56:29;;;;;;;10.80;4.10;;;6.50;99.90;;;;;;4960402;28;20801;-66
2022/02/23 06:58:57;;;;;;;8.80;4.53;;;6.50;99.90;;;;;;4960791;28;20480;-66
2022/02/23 07:01:24;;;;;;;6.47;3.70;;;6.50;99.90;;;;;;4960061;28;20498;-66
2022/02/23 07:03:53;;;;;;;11.73;5.43;;;6.60;99.90;;;;;;4959339;28;20471;-66
2022/02/23 07:06:20;;;;;;;5.17;4.07;;;6.70;99.90;;;;;;4960028;28;20547;-66
2022/02/23 07:08:48;;;;;;;8.70;4.30;;;6.70;99.90;;;;;;4959319;28;20463;-65
2022/02/23 07:11:16;;;;;;;12.73;5.20;;;6.80;99.90;;;;;;4962379;28;20562;-66
2022/02/23 07:13:43;;;;;;;9.80;4.67;;;6.90;99.90;;;;;;4960234;28;20466;-67
2022/02/23 07:16:12;;;;;;;11.73;5.00;;;6.90;99.90;;;;;;4960894;28;20459;-66
2022/02/23 07:18:40;;;;;;;9.53;4.33;;;7.10;99.90;;;;;;4966259;28;20480;-67
2022/02/23 07:21:09;;;;;;;11.30;4.67;;;7.20;99.90;;;;;;4975394;28;20472;-66
2022/02/23 07:23:36;;;;;;;9.23;4.60;;;7.30;99.90;;;;;;4977751;28;20500;-67
2022/02/23 07:26:02;;;;;;;10.60;4.37;;;7.30;99.90;;;;;;4977400;28;20537;-67
2022/02/23 07:28:29;;;;;;;10.80;4.43;;;7.40;99.90;;;;;;4971683;28;20847;-67
2022/02/23 07:30:56;;;;;;;11.87;5.03;;;7.50;99.90;;;;;;4971851;28;20467;-67
2022/02/23 07:33:24;;;;;;;6.80;4.70;;;7.60;99.90;;;;;;4971551;28;20459;-67
2022/02/23 07:35:52;;;;;;;8.90;4.70;;;7.80;99.90;;;;;;4972963;28;20451;-67
2022/02/23 07:38:19;;;;;;;8.73;4.83;;;8.30;99.90;;;;;;4971296;28;20467;-67
2022/02/23 07:40:46;;;;;;;11.93;4.20;;;9.10;99.90;;;;;;4972913;28;20480;-67
2022/02/23 07:43:13;;;;;;;7.93;4.47;;;9.40;99.90;;;;;;4974588;28;20452;-67
2022/02/23 07:45:41;;;;;;;10.03;5.03;;;9.60;99.90;;;;;;4974404;28;20448;-67
2022/02/23 07:48:08;;;;;;;6.70;3.70;;;9.70;99.90;;;;;;4969977;28;20456;-67
2022/02/23 07:50:37;;;;;;;5.87;3.50;;;9.80;99.90;;;;;;4975565;28;20474;-67
2022/02/23 07:53:04;;;;;;;8.90;4.23;;;9.80;99.90;;;;;;4976630;28;20455;-68
2022/02/23 07:55:31;;;;;;;6.77;4.17;;;9.70;99.90;;;;;;4969181;28;20527;-67
2022/02/23 07:57:58;;;;;;;9.50;4.80;;;9.40;99.90;;;;;;4964325;28;20535;-66
2022/02/23 08:00:27;;;;;;;7.30;3.80;;;9.40;99.90;;;;;;4965017;28;20538;-66
2022/02/23 08:02:54;;;;;;;5.40;4.50;;;9.40;99.90;;;;;;4964876;28;20475;-65
2022/02/23 08:05:21;;;;;;;8.50;4.00;;;9.10;99.90;;;;;;4964414;28;20451;-67
2022/02/23 08:07:49;;;;;;;10.37;5.10;;;9.10;99.90;;;;;;4970566;28;20961;-67
2022/02/23 08:10:15;;;;;;;6.47;4.63;;;9.10;99.90;;;;;;4968967;28;20444;-66
2022/02/23 08:12:42;;;;;;;9.47;4.87;;;9.10;99.90;;;;;;4965390;28;20452;-67
2022/02/23 08:20:39;;;;;;;8.10;3.90;;;11.20;99.90;;;;;;4966226;28;20526;-66
2022/02/23 08:23:07;;;;;;;7.20;3.90;;;12.80;99.90;;;;;;4966776;28;20459;-68
2022/02/23 08:25:34;;;;;;;6.90;3.80;;;13.90;99.90;;;;;;4971608;28;20455;-67
2022/02/23 08:28:01;;;;;;;8.10;4.03;;;15.00;99.90;;;;;;4977697;28;20451;-67
2022/02/23 08:30:28;;;;;;;7.37;4.40;;;16.10;99.90;;;;;;4978024;28;20454;-67
2022/02/23 08:32:55;;;;;;;10.40;4.90;;;17.20;99.90;;;;;;4980487;28;20451;-68
2022/02/23 08:35:22;;;;;;;5.00;4.37;;;17.50;99.90;;;;;;4981099;28;20451;-68
2022/02/23 08:37:49;;;;;;;11.90;5.10;;;18.20;99.90;;;;;;4982103;28;20516;-67
2022/02/23 08:40:18;;;;;;;7.57;4.57;;;18.80;98.10;;;;;;4981663;28;20471;-68
2022/02/23 08:42:45;;;;;;;8.40;4.80;;;19.00;95.90;;;;;;4981980;29;20510;-67
2022/02/23 08:45:12;;;;;;;7.33;4.00;;;19.10;95.40;;;;;;4981125;28;20546;-68
2022/02/23 08:47:39;;;;;;;10.17;4.80;;;19.60;94.50;;;;;;4981899;28;20522;-67
2022/02/23 08:50:07;;;;;;;8.60;4.30;;;20.30;92.30;;;;;;4980333;28;20444;-67
2022/02/23 08:52:33;;;;;;;6.57;3.73;;;20.70;90.50;;;;;;4981187;28;20471;-68
2022/02/23 08:55:00;;;;;;;6.17;3.80;;;20.80;90.00;;;;;;4978177;28;20463;-68
2022/02/23 08:57:28;;;;;;;5.17;3.20;;;20.80;86.40;;;;;;4978150;28;20456;-67
2022/02/23 08:59:55;;;;;;;5.60;3.67;;;20.70;87.20;;;;;;4974914;28;20543;-67
2022/02/23 09:02:22;;;;;;;6.50;3.70;;;21.50;85.00;;;;;;4970630;28;20479;-68
2022/02/23 09:04:49;;;;;;;6.00;3.10;;;21.00;84.80;;;;;;4972442;28;20535;-67
2022/02/23 09:07:15;;;;;;;6.07;3.07;;;21.60;82.00;;;;;;4971119;28;20526;-66
2022/02/23 09:09:42;;;;;;;7.67;2.93;;;22.00;78.70;;;;;;4970848;28;20954;-66
2022/02/23 09:12:09;;;;;;;8.47;3.60;;;22.20;79.10;;;;;;4968327;28;20881;-66
2022/02/23 09:14:38;;;;;;;10.57;3.80;;;22.40;76.60;;;;;;4969801;28;20478;-67
2022/02/23 09:17:05;;;;;;;5.60;3.63;;;22.00;76.00;;;;;;4971984;28;20460;-68
2022/02/23 09:19:31;;;;;;;5.70;2.97;;;21.60;74.70;;;;;;4983837;28;20475;-69
2022/02/23 09:21:58;;;;;;;6.60;4.50;;;21.10;75.20;;;;;;4973314;28;20479;-68
2022/02/23 09:24:25;;;;;;;10.37;3.80;;;20.90;76.00;;;;;;4967509;28;20854;-69
2022/02/23 09:26:52;;;;;;;5.70;4.00;;;21.50;76.90;;;;;;4967713;28;20791;-68
2022/02/23 09:29:19;;;;;;;7.20;4.77;;;22.50;75.00;;;;;;4968533;28;20819;-68
2022/02/23 09:31:47;;;;;;;7.50;4.03;;;23.40;71.80;;;;;;4964088;28;20588;-68
2022/02/23 09:34:14;;;;;;;9.73;3.33;;;22.80;69.80;;;;;;4964472;28;20626;-68
2022/02/23 09:36:41;;;;;;;6.87;3.03;;;21.10;70.80;;;;;;4963154;28;20491;-68
2022/02/23 09:39:09;;;;;;;6.53;3.23;;;19.60;73.70;;;;;;4963143;28;20455;-68
2022/02/23 09:41:38;;;;;;;5.40;3.27;;;20.10;78.10;;;;;;4962577;28;20530;-69
2022/02/23 09:44:05;;;;;;;8.27;3.23;;;20.40;76.70;;;;;;4963071;28;20451;-67
2022/02/23 09:46:32;;;;;;;6.20;3.50;;;21.50;78.30;;;;;;4961774;28;20451;-67
2022/02/23 09:49:00;;;;;;;6.07;2.80;;;21.60;73.80;;;;;;4963398;28;20821;-67
2022/02/23 09:51:27;;;;;;;7.67;3.27;;;22.70;72.50;;;;;;4961401;28;20471;-67
2022/02/23 09:53:55;;;;;;;6.53;2.70;;;23.50;70.80;;;;;;4961966;28;20460;-67
2022/02/23 09:56:23;;;;;;;3.67;2.23;;;24.20;66.30;;;;;;4961387;28;20797;-67
2022/02/23 09:58:53;;;;;;;5.03;2.10;;;24.30;67.30;;;;;;4963004;28;20460;-67
2022/02/23 10:01:23;;;;;;;4.13;2.30;;;24.70;61.70;;;;;;4962598;28;20483;-67
2022/02/23 10:03:51;;;;;;;4.60;2.07;;;25.40;61.10;;;;;;4960840;28;20579;-67
2022/02/23 10:06:20;;;;;;;3.40;2.23;;;25.70;56.90;;;;;;4964430;28;20935;-67
2022/02/23 10:08:47;;;;;;;3.60;1.83;;;26.10;55.80;;;;;;4975062;28;20944;-67
2022/02/23 10:11:18;;;;;;;4.37;2.03;;;25.00;55.70;;;;;;4968862;28;20464;-66
2022/02/23 10:13:50;;;;;;;4.47;2.10;;;24.40;57.50;;;;;;4960676;28;20447;-66
2022/02/23 10:16:17;;;;;;;5.20;2.43;;;24.50;61.00;;;;;;4960866;28;20448;-68
2022/02/23 10:18:44;;;;;;;2.47;2.10;;;24.20;60.60;;;;;;4960477;28;20470;-67
2022/02/23 10:21:11;;;;;;;4.23;2.57;;;25.40;57.60;;;;;;4959779;28;20483;-67
2022/02/23 10:23:39;;;;;;;5.33;3.00;;;26.00;57.10;;;;;;4960430;28;20456;-67
2022/02/23 10:26:09;;;;;;;5.63;2.63;;;25.90;55.90;;;;;;4960013;28;20456;-67
2022/02/23 10:28:37;;;;;;;5.67;2.73;;;25.60;57.10;;;;;;4960845;28;20451;-67
2022/02/23 10:31:07;;;;;;;4.60;2.17;;;26.40;55.00;;;;;;4961239;28;20479;-67
2022/02/23 10:33:36;;;;;;;4.93;2.77;;;26.00;54.40;;;;;;4961816;28;20444;-67
2022/02/23 10:36:05;;;;;;;5.33;2.30;;;23.90;54.30;;;;;;4961616;28;20456;-67
2022/02/23 10:38:33;;;;;;;5.53;2.20;;;22.60;55.80;;;;;;4961969;28;20547;-67
2022/02/23 10:41:03;;;;;;;4.80;2.60;;;22.30;57.40;;;;;;4960475;28;20492;-67
2022/02/23 10:43:34;;;;;;;4.53;2.90;;;22.00;57.70;;;;;;4960758;28;20471;-66
2022/02/23 10:46:03;;;;;;;5.53;2.53;;;22.00;59.60;;;;;;4961120;28;20448;-66
2022/02/23 10:48:36;;;;;;;3.10;2.23;;;20.40;59.30;;;;;;4962846;28;20460;-66
2022/02/23 10:51:04;;;;;;;9.53;2.67;;;19.50;61.50;;;;;;4968031;28;20507;-66
2022/02/23 10:53:33;;;;;;;3.67;2.10;;;19.40;63.90;;;;;;4965142;28;20452;-66
2022/02/23 10:56:02;;;;;;;8.30;2.13;;;20.20;61.70;;;;;;4961680;28;20459;-66
2022/02/23 10:58:29;;;;;;;3.90;2.00;;;20.20;62.10;;;;;;4961058;28;20467;-66
2022/02/23 11:01:03;;;;;;;2.63;2.33;;;20.80;65.50;;;;;;4962253;28;20558;-67
2022/02/23 11:03:30;;;;;;;7.27;2.53;;;20.90;61.70;;;;;;4960699;28;20447;-66
2022/02/23 11:05:57;;;;;;;6.40;2.40;;;20.30;59.30;;;;;;4962440;28;20471;-69
2022/02/23 11:08:24;;;;;;;7.37;2.17;;;20.70;62.30;;;;;;4962671;28;20523;-67
2022/02/23 11:10:51;;;;;;;4.47;1.90;;;20.80;62.10;;;;;;4961822;28;20468;-68
2022/02/23 11:13:21;;;;;;;5.23;2.60;;;20.40;63.10;;;;;;4960270;28;20482;-67
2022/02/23 11:15:49;;;;;;;4.40;2.33;;;19.70;61.20;;;;;;4961534;28;20455;-67
2022/02/23 11:18:18;;;;;;;5.10;2.50;;;18.80;62.40;;;;;;4959762;28;20463;-67
2022/02/23 11:20:46;;;;;;;6.23;2.30;;;18.20;64.50;;;;;;4960043;28;20535;-67
2022/02/23 11:23:18;;;;;;;6.00;2.13;;;17.90;68.70;;;;;;4961747;28;20456;-67
2022/02/23 11:25:48;;;;;;;10.03;2.93;;;17.50;71.80;;;;;;4962007;28;20936;-67
2022/02/23 11:28:22;;;;;;;6.97;3.23;;;17.20;73.70;;;;;;4960410;28;20462;-67
2022/02/23 11:30:52;;;;;;;4.87;2.70;;;17.10;73.40;;;;;;4959062;28;20496;-67
2022/02/23 11:33:37;;;;;;;3.47;2.10;;;17.10;73.10;;;;;;4958738;28;20456;-67
2022/02/23 11:36:17;;;;;;;4.00;2.20;;;17.10;71.40;;;;;;4946580;28;20464;-67
2022/02/23 11:38:47;;;;;;;4.80;2.03;;;16.90;69.60;;;;;;4959372;28;20454;-67
2022/02/23 11:41:23;;;;;;;4.83;2.33;;;16.50;75.10;;;;;;4959200;28;20491;-67
2022/02/23 11:43:57;;;;;;;3.43;2.40;;;16.60;77.90;;;;;;4958809;28;20440;-67
2022/02/23 11:49:49;;;;;;;7.10;2.80;;;16.10;74.60;;;;;;4958264;29;20435;-67
2022/02/23 11:52:18;;;;;;;3.10;2.00;;;16.00;75.00;;;;;;4959132;28;20476;-66
2022/02/23 11:54:56;;;;;;;4.60;2.60;;;15.80;75.20;;;;;;4958448;28;20462;-67
2022/02/23 12:01:00;;;;;;;9.53;2.50;;;16.00;76.80;;;;;;4959440;29;20534;-66
2022/02/23 12:03:30;;;;;;;6.30;2.57;;;16.20;78.20;;;;;;4959456;28;20459;-67
2022/02/23 12:05:58;;;;;;;6.87;2.20;;;16.40;74.50;;;;;;4959152;28;20452;-67
2022/02/23 12:08:43;;;;;;;3.50;1.63;;;16.40;72.40;;;;;;4958886;28;20459;-67
2022/02/23 12:11:40;;;;;;;4.17;2.00;;;16.50;72.90;;;;;;4959003;28;20463;-67
2022/02/23 12:14:07;;;;;;;5.43;3.30;;;16.40;72.90;;;;;;4965016;28;20451;-67
2022/02/23 12:16:47;;;;;;;2.53;1.67;;;16.30;72.70;;;;;;4968068;28;20462;-67
2022/02/23 12:19:15;;;;;;;3.80;2.23;;;16.10;73.40;;;;;;4959675;28;20487;-67
2022/02/23 12:21:43;;;;;;;4.43;1.63;;;15.90;77.00;;;;;;4962369;28;20490;-67
2022/02/23 12:24:14;;;;;;;9.00;2.60;;;15.80;77.90;;;;;;4966789;28;20463;-67
2022/02/23 12:26:42;;;;;;;3.00;2.03;;;16.10;77.90;;;;;;4960789;28;20448;-67
2022/02/23 12:29:10;;;;;;;5.90;3.00;;;16.10;75.90;;;;;;4960571;28;20459;-67
2022/02/23 12:31:39;;;;;;;3.17;2.07;;;16.00;75.00;;;;;;4959077;28;20476;-67
2022/02/23 12:34:09;;;;;;;7.10;2.53;;;15.60;77.00;;;;;;4959047;28;20456;-67
2022/02/23 12:36:38;;;;;;;6.40;2.63;;;15.60;79.40;;;;;;4970642;28;20447;-68
2022/02/23 12:39:08;;;;;;;6.27;2.23;;;15.50;85.40;;;;;;4959408;28;20955;-67
2022/02/23 12:41:36;;;;;;;5.67;2.80;;;15.80;82.70;;;;;;4959040;28;20488;-66
2022/02/23 12:44:06;;;;;;;6.63;2.40;;;15.90;80.10;;;;;;4958769;28;20544;-66
2022/02/23 12:46:35;;;;;;;5.07;2.20;;;16.00;76.90;;;;;;4958827;28;20462;-68
2022/02/23 12:49:04;;;;;;;4.23;2.07;;;15.90;75.20;;;;;;4958451;28;20456;-67
2022/02/23 12:51:32;;;;;;;8.73;1.97;;;16.00;74.70;;;;;;4958919;28;20468;-68
2022/02/23 12:54:03;;;;;;;5.40;2.43;;;15.90;75.30;;;;;;4958221;28;20466;-67
2022/02/23 12:56:33;;;;;;;5.07;2.27;;;15.80;81.70;;;;;;4959165;28;20499;-66
2022/02/23 12:59:02;;;;;;;5.70;2.40;;;15.90;76.50;;;;;;4966592;28;20459;-67
2022/02/23 13:01:31;;;;;;;3.53;1.90;;;16.10;80.30;;;;;;4968064;28;20484;-67
2022/02/23 13:03:59;;;;;;;3.83;2.03;;;16.00;76.70;;;;;;4958850;28;20463;-66
2022/02/23 13:06:28;;;;;;;3.70;1.83;;;16.10;77.50;;;;;;4960569;28;20975;-67
2022/02/23 13:09:00;;;;;;;4.60;1.80;;;16.20;78.40;;;;;;4962868;28;20451;-66
2022/02/23 13:11:29;;;;;;;8.20;2.67;;;16.30;77.30;;;;;;4962522;28;20475;-67
2022/02/23 13:13:59;;;;;;;4.30;1.77;;;15.90;74.10;;;;;;4962165;28;20462;-67
2022/02/23 13:16:28;;;;;;;6.47;1.77;;;15.80;76.10;;;;;;4962574;28;20444;-67
2022/02/23 13:19:06;;;;;;;3.60;1.97;;;15.80;76.10;;;;;;4961302;28;20491;-67
2022/02/23 13:21:52;;;;;;;4.90;1.80;;;15.80;75.90;;;;;;4963416;28;20483;-66
2022/02/23 13:24:25;;;;;;;2.50;1.73;;;16.00;75.50;;;;;;4961899;28;20539;-67
2022/02/23 13:26:52;;;;;;;3.20;1.80;;;16.10;75.60;;;;;;4962291;28;20440;-66
2022/02/23 13:29:20;;;;;;;2.57;1.90;;;16.30;80.90;;;;;;4961286;28;20456;-68
2022/02/23 13:31:50;;;;;;;4.80;1.60;;;16.50;76.60;;;;;;4961607;28;20476;-67
2022/02/23 13:34:32;;;;;;;5.07;2.53;;;16.50;77.10;;;;;;4961364;28;20464;-67
2022/02/23 13:37:03;;;;;;;3.70;2.10;;;16.30;73.60;;;;;;4960737;28;20983;-67
2022/02/23 13:39:34;;;;;;;6.50;2.20;;;16.40;77.20;;;;;;4960549;28;20452;-66
2022/02/23 13:42:05;;;;;;;5.07;2.10;;;16.60;74.70;;;;;;4961150;28;20490;-67
2022/02/23 13:44:34;;;;;;;6.73;2.60;;;16.50;75.40;;;;;;4962972;28;20509;-66
2022/02/23 13:47:04;;;;;;;3.63;1.90;;;16.50;74.50;;;;;;4963112;28;20456;-68
2022/02/23 13:49:31;;;;;;;3.20;1.70;;;16.60;77.90;;;;;;4961955;28;20455;-67
2022/02/23 13:51:59;;;;;;;4.33;2.20;;;16.70;73.30;;;;;;4968466;28;20476;-67
2022/02/23 13:54:27;;;;;;;7.47;2.10;;;16.80;73.50;;;;;;4966782;28;20459;-67
2022/02/23 13:56:56;;;;;;;3.30;2.20;;;16.60;74.30;;;;;;4967495;28;20456;-67
2022/02/23 13:59:25;;;;;;;3.30;1.70;;;16.30;73.70;;;;;;4960729;28;20459;-67
2022/02/23 14:02:04;;;;;;;3.03;2.00;;;16.00;76.60;;;;;;4960562;28;20998;-66
2022/02/23 14:04:42;;;;;;;4.67;1.90;;;15.90;75.60;;;;;;4962137;28;20455;-68
2022/02/23 14:07:10;;;;;;;9.07;2.03;;;15.80;77.30;;;;;;4963138;28;20923;-68
2022/02/23 14:09:41;;;;;;;7.10;2.83;;;15.70;76.30;;;;;;4963116;28;20939;-68
2022/02/23 14:12:13;;;;;;;4.20;1.87;;;15.20;74.50;;;;;;4961694;28;20512;-67
2022/02/23 14:14:43;;;;;;;4.13;3.13;;;15.00;78.40;;;;;;4962023;28;20456;-67
2022/02/23 14:17:18;;;;;;;6.93;1.83;;;14.90;77.90;;;;;;4972536;28;20420;-67
2022/02/23 14:19:45;;;;;;;5.90;1.57;;;15.00;79.10;;;;;;4980985;28;20435;-67
2022/02/23 14:22:21;;;;;;;4.43;1.80;;;15.00;78.10;;;;;;4981164;28;20498;-67
2022/02/23 14:24:57;;;;;;;7.53;2.23;;;15.10;79.70;;;;;;4976672;28;20539;-67
2022/02/23 14:27:29;;;;;;;7.57;2.30;;;15.20;82.40;;;;;;4971960;28;20440;-67
2022/02/23 14:29:56;;;;;;;6.20;2.27;;;14.90;78.50;;;;;;4969929;28;20432;-67
2022/02/23 14:32:25;;;;;;;2.60;2.10;;;14.90;79.30;;;;;;4962232;28;20481;-66
2022/02/23 14:34:56;;;;;;;4.60;2.40;;;15.20;82.80;;;;;;4962878;28;20522;-66
2022/02/23 14:37:24;;;;;;;3.03;2.60;;;15.30;80.60;;;;;;4962478;28;20536;-68
2022/02/23 14:39:51;;;;;;;6.40;2.30;;;15.50;77.90;;;;;;4963929;28;20451;-67
2022/02/23 14:42:18;;;;;;;6.47;2.10;;;15.60;76.60;;;;;;4963476;28;20475;-66
2022/02/23 14:44:46;;;;;;;2.27;2.00;;;15.80;78.60;;;;;;4965242;28;20468;-67
2022/02/23 14:47:14;;;;;;;5.83;2.30;;;15.90;80.20;;;;;;4972178;28;20448;-67
2022/02/23 14:49:41;;;;;;;3.57;2.13;;;15.70;79.40;;;;;;4980183;28;20435;-67
2022/02/23 14:52:08;;;;;;;6.50;2.60;;;15.70;79.20;;;;;;4979999;28;20470;-67
2022/02/23 14:54:35;;;;;;;6.37;2.50;;;15.80;78.40;;;;;;4977484;28;20486;-67
2022/02/23 14:57:02;;;;;;;2.93;1.83;;;15.80;80.90;;;;;;4977084;28;20452;-67
2022/02/23 14:59:29;;;;;;;4.10;1.80;;;15.70;76.20;;;;;;4976293;28;20456;-67
2022/02/23 15:01:57;;;;;;;3.60;2.00;;;15.70;78.00;;;;;;4977194;28;20484;-67
2022/02/23 15:04:24;;;;;;;5.80;2.20;;;15.60;77.20;;;;;;4961383;28;20470;-66
2022/02/23 15:06:51;;;;;;;6.13;2.40;;;15.70;76.00;;;;;;4960246;28;20460;-67
2022/02/23 15:09:17;;;;;;;6.63;2.13;;;15.60;76.40;;;;;;4959823;28;20801;-67
2022/02/23 15:11:44;;;;;;;4.00;1.80;;;15.60;77.90;;;;;;4959503;28;20539;-67
2022/02/23 15:14:13;;;;;;;7.70;2.30;;;15.60;76.30;;;;;;4969279;28;20523;-67
2022/02/23 15:16:40;;;;;;;3.93;2.23;;;15.20;77.60;;;;;;4974939;28;20460;-67
2022/02/23 15:19:08;;;;;;;5.00;1.80;;;15.00;80.20;;;;;;4959356;28;20471;-67
2022/02/23 15:21:35;;;;;;;3.47;2.20;;;15.00;79.40;;;;;;4959379;28;20515;-68
2022/02/23 15:24:02;;;;;;;3.70;1.83;;;15.00;78.60;;;;;;4966846;28;20468;-67
2022/02/23 15:26:28;;;;;;;5.00;2.50;;;15.00;77.70;;;;;;4960837;28;20455;-67
2022/02/23 15:28:55;;;;;;;3.13;1.60;;;14.90;77.50;;;;;;4958058;28;20456;-67
2022/02/23 15:31:22;;;;;;;5.20;2.40;;;14.70;79.70;;;;;;4958862;28;20480;-67
2022/02/23 15:33:49;;;;;;;3.90;1.90;;;14.60;78.30;;;;;;4959207;28;20535;-67
2022/02/23 15:36:17;;;;;;;5.73;2.40;;;14.40;78.70;;;;;;4968982;28;20982;-67
2022/02/23 15:38:44;;;;;;;2.73;1.90;;;14.30;78.40;;;;;;4965352;28;20459;-67
2022/02/23 15:41:10;;;;;;;4.37;2.30;;;14.30;79.50;;;;;;4958940;28;20484;-67
2022/02/23 15:43:37;;;;;;;4.30;1.90;;;14.30;80.60;;;;;;4959201;28;20482;-67
2022/02/23 15:46:04;;;;;;;5.80;1.57;;;14.20;79.80;;;;;;4959045;28;20455;-67
2022/02/23 15:48:31;;;;;;;2.17;1.90;;;13.90;80.70;;;;;;4960329;28;20456;-67
2022/02/23 15:50:57;;;;;;;6.33;2.30;;;13.80;82.50;;;;;;4974530;28;20499;-67
2022/02/23 15:53:25;;;;;;;6.07;2.17;;;13.80;80.90;;;;;;4975893;28;20479;-67
2022/02/23 15:55:53;;;;;;;3.23;1.70;;;13.80;80.10;;;;;;4975122;28;20476;-67
2022/02/23 15:58:20;;;;;;;3.87;1.47;;;13.70;81.40;;;;;;4976728;28;20455;-67
2022/02/23 16:00:46;;;;;;;3.60;1.90;;;13.60;82.30;;;;;;4977154;28;20469;-67
2022/02/23 16:03:13;;;;;;;4.97;2.10;;;13.60;83.20;;;;;;4978247;28;20467;-66
2022/02/23 16:05:40;;;;;;;4.97;1.57;;;13.60;83.70;;;;;;4978266;28;20432;-67
2022/02/23 16:08:07;;;;;;;4.27;1.70;;;13.50;81.80;;;;;;4974575;28;20463;-67
2022/02/23 16:10:35;;;;;;;5.57;2.10;;;13.50;82.00;;;;;;4975324;28;20456;-67
2022/02/23 16:13:03;;;;;;;2.67;1.67;;;13.50;82.30;;;;;;4977115;28;20432;-67
2022/02/23 16:15:31;;;;;;;2.63;1.80;;;13.40;83.20;;;;;;4976331;28;20545;-68
2022/02/23 16:17:58;;;;;;;6.40;1.83;;;13.30;83.60;;;;;;4978357;28;20444;-67
2022/02/23 16:20:25;;;;;;;10.60;2.77;;;13.30;91.90;;;;;;4977547;28;20452;-68
2022/02/23 16:22:52;;;;;;;6.40;2.40;;;13.30;91.40;;;;;;4977687;28;21002;-68
2022/02/23 16:25:18;;;;;;;5.07;2.00;;;13.30;93.50;;;;;;4980051;28;20432;-67
2022/02/23 16:27:46;;;;;;;4.57;1.90;;;13.30;92.90;;;;;;4980025;28;20440;-67
2022/02/23 16:30:13;;;;;;;5.00;2.00;;;13.20;90.20;;;;;;4976389;28;20440;-67
2022/02/23 16:32:40;;;;;;;8.90;2.20;;;13.20;89.10;;;;;;4976731;28;20460;-67
2022/02/23 16:35:07;;;;;;;3.70;2.10;;;13.20;89.70;;;;;;4975514;28;20460;-68
2022/02/23 16:37:34;;;;;;;3.10;1.80;;;13.00;88.30;;;;;;4973151;28;20452;-67
2022/02/23 16:40:01;;;;;;;6.30;2.20;;;12.90;88.40;;;;;;4979179;28;20459;-67
2022/02/23 16:42:28;;;;;;;4.80;2.27;;;12.80;88.50;;;;;;4977547;28;20480;-67
2022/02/23 16:44:56;;;;;;;3.77;2.27;;;12.70;89.80;;;;;;4979125;28;20439;-67
2022/02/23 16:47:23;;;;;;;7.20;2.20;;;12.70;90.40;;;;;;4971506;28;20452;-67
2022/02/23 16:49:49;;;;;;;6.53;2.57;;;12.60;90.20;;;;;;4967817;28;20455;-67
2022/02/23 16:52:17;;;;;;;4.43;2.50;;;12.50;90.40;;;;;;4968833;28;20480;-67
2022/02/23 16:54:44;;;;;;;9.17;2.93;;;12.40;90.90;;;;;;4978335;28;20496;-67
2022/02/23 16:57:10;;;;;;;12.03;3.03;;;12.20;90.50;;;;;;4981337;28;20432;-67
2022/02/23 16:59:37;;;;;;;6.53;2.53;;;12.10;90.90;;;;;;4968655;28;20451;-67
2022/02/23 17:02:05;;;;;;;5.60;2.70;;;12.00;91.80;;;;;;4969558;28;20499;-67
2022/02/23 17:04:32;;;;;;;4.97;2.50;;;12.00;92.10;;;;;;4970029;28;20444;-67
2022/02/23 17:06:59;;;;;;;4.17;1.90;;;11.90;92.30;;;;;;4969319;28;20475;-67
2022/02/23 17:09:26;;;;;;;7.97;2.90;;;11.80;92.00;;;;;;4969352;28;20451;-68
2022/02/23 17:11:52;;;;;;;5.30;2.70;;;11.80;92.10;;;;;;4968111;28;20476;-67
2022/02/23 17:14:19;;;;;;;3.80;2.57;;;11.70;92.30;;;;;;4967844;28;20539;-67
2022/02/23 17:16:46;;;;;;;7.07;2.87;;;11.70;92.80;;;;;;4967949;28;20459;-68
2022/02/23 17:19:14;;;;;;;3.40;1.80;;;11.60;93.20;;;;;;4968139;28;20455;-67
2022/02/23 17:21:42;;;;;;;6.00;3.00;;;11.60;93.40;;;;;;4969810;28;20487;-68
2022/02/23 17:24:09;;;;;;;4.30;3.07;;;11.50;93.40;;;;;;4971974;28;20811;-67
2022/02/23 17:26:35;;;;;;;5.30;2.80;;;11.40;93.50;;;;;;4967697;28;20813;-68
2022/02/23 17:29:03;;;;;;;6.30;3.13;;;11.40;93.60;;;;;;4969985;28;20470;-68
2022/02/23 17:31:29;;;;;;;7.67;2.80;;;11.30;93.80;;;;;;4980027;28;20532;-68
2022/02/23 17:33:56;;;;;;;7.27;3.93;;;11.20;94.00;;;;;;4965221;28;20461;-68
2022/02/23 17:36:25;;;;;;;8.03;3.30;;;11.10;94.40;;;;;;4964974;28;20459;-67
2022/02/23 17:38:52;;;;;;;8.00;3.03;;;11.10;94.30;;;;;;4964399;28;20950;-68
2022/02/23 17:41:19;;;;;;;5.10;2.70;;;11.00;95.80;;;;;;4964895;28;20480;-68
2022/02/23 17:43:45;;;;;;;4.50;2.50;;;11.00;95.90;;;;;;4965220;28;20483;-67
2022/02/23 17:46:12;;;;;;;5.80;3.80;;;11.00;96.00;;;;;;4963558;28;20459;-68
2022/02/23 17:48:39;;;;;;;4.03;2.37;;;10.90;95.90;;;;;;4963529;28;20452;-69
2022/02/23 17:51:06;;;;;;;7.20;3.80;;;10.90;95.90;;;;;;4964169;28;20472;-68
2022/02/23 17:53:34;;;;;;;6.70;3.87;;;10.80;95.40;;;;;;4964166;28;20452;-69
2022/02/23 17:56:00;;;;;;;5.23;3.47;;;10.70;95.30;;;;;;4963448;28;20463;-68
2022/02/23 17:58:27;;;;;;;6.07;3.53;;;10.70;95.60;;;;;;4962430;28;20452;-68
2022/02/23 18:01:00;;;;;;;10.60;4.53;;;10.70;96.00;;;;;;4964467;28;20491;-67
2022/02/23 18:03:27;;;;;;;10.60;4.10;;;10.60;96.10;;;;;;4962810;28;20467;-67
2022/02/23 18:05:53;;;;;;;7.13;3.63;;;10.50;96.10;;;;;;4962241;28;20887;-68